Time;durP1;ratioP1;P1;durP2;ratioP2;P2;SDS_P1;SDS_P2;PMS_P1;PMS_P2;Temp;Humidity;BMP_temperature;BMP_pressure;BME280_temperature;BME280_humidity;BME280_pressure;Samples;Min_cycle;Max_cycle;Signal;HPM_P1;HPM_P2
2022/06/06 00:00:35;;;;;;;0.25;0.25;;;14.10;99.90;;;;;;5050429;28;20224;-76
2022/06/06 00:03:05;;;;;;;0.10;0.10;;;14.10;99.90;;;;;;5045897;28;20194;-79
2022/06/06 00:05:36;;;;;;;0.20;0.20;;;14.10;99.90;;;;;;5050927;28;20206;-74
2022/06/06 00:08:07;;;;;;;5.03;0.20;;;14.20;99.90;;;;;;5045633;28;20205;-74
2022/06/06 00:10:40;;;;;;;0.57;0.20;;;14.20;99.90;;;;;;5053027;28;20190;-77
2022/06/06 00:13:11;;;;;;;0.85;0.22;;;14.20;99.90;;;;;;5054472;28;20560;-76
2022/06/06 00:15:42;;;;;;;3.58;1.45;;;14.40;99.90;;;;;;5046766;28;20222;-76
2022/06/06 00:18:12;;;;;;;1.50;0.47;;;14.40;99.90;;;;;;5046724;28;20259;-77
2022/06/06 00:20:43;;;;;;;2.15;0.40;;;14.50;99.90;;;;;;5048179;28;20247;-80
2022/06/06 00:23:14;;;;;;;0.30;0.30;;;14.50;99.90;;;;;;5050135;28;20531;-78
2022/06/06 00:25:47;;;;;;;0.32;0.20;;;14.50;99.90;;;;;;5049900;28;20281;-73
2022/06/06 00:28:17;;;;;;;1.35;0.63;;;14.60;99.90;;;;;;5046196;28;20209;-77
2022/06/06 00:30:48;;;;;;;0.20;0.20;;;14.60;99.90;;;;;;5047586;28;20657;-77
2022/06/06 00:36:06;;;;;;;0.30;0.30;;;14.70;99.90;;;;;;5049239;28;20711;-77
2022/06/06 00:38:37;;;;;;;0.40;0.20;;;14.80;99.90;;;;;;5050631;28;20201;-75
2022/06/06 00:41:10;;;;;;;0.63;0.22;;;14.80;99.90;;;;;;5055919;28;20200;-76
2022/06/06 00:43:41;;;;;;;2.33;0.30;;;14.80;99.90;;;;;;5053115;28;20186;-76
2022/06/06 00:46:13;;;;;;;0.90;0.30;;;14.80;99.90;;;;;;5053931;28;20194;-76
2022/06/06 00:48:45;;;;;;;0.75;0.35;;;14.90;99.90;;;;;;5054329;28;20244;-76
2022/06/06 00:51:18;;;;;;;2.22;0.70;;;15.00;99.90;;;;;;5053248;28;20198;-84
2022/06/06 00:53:52;;;;;;;4.00;0.50;;;15.10;99.90;;;;;;5055438;28;20190;-82
2022/06/06 00:56:30;;;;;;;0.65;0.20;;;15.20;99.90;;;;;;5053865;28;20216;-75
2022/06/06 00:59:06;;;;;;;1.85;0.38;;;15.20;99.90;;;;;;5052669;28;20247;-75
2022/06/06 01:01:39;;;;;;;3.70;0.38;;;15.20;99.90;;;;;;5051879;28;20221;-77
2022/06/06 01:04:11;;;;;;;0.25;0.25;;;15.30;99.90;;;;;;5054454;28;20602;-75
2022/06/06 01:06:46;;;;;;;0.22;0.20;;;15.30;99.90;;;;;;5054787;28;20201;-77
2022/06/06 01:09:19;;;;;;;0.85;0.20;;;15.40;99.90;;;;;;5053310;28;20301;-75
2022/06/06 01:11:55;;;;;;;0.40;0.22;;;15.40;99.90;;;;;;5055122;28;20591;-75
2022/06/06 01:14:29;;;;;;;0.10;0.10;;;15.40;99.90;;;;;;5054858;28;20276;-76
2022/06/06 01:17:05;;;;;;;1.02;0.20;;;15.60;99.90;;;;;;5053940;28;20197;-74
2022/06/06 01:20:03;;;;;;;0.35;0.30;;;15.60;99.90;;;;;;5053256;28;20205;-74
2022/06/06 01:23:09;;;;;;;0.20;0.20;;;15.60;99.90;;;;;;5053638;28;20243;-74
2022/06/06 01:26:09;;;;;;;0.32;0.10;;;15.60;99.90;;;;;;5058307;28;20201;-77
2022/06/06 01:28:53;;;;;;;1.33;0.20;;;15.60;99.90;;;;;;5048749;28;20197;-79
2022/06/06 01:31:30;;;;;;;0.65;0.20;;;15.70;99.90;;;;;;5053548;28;20201;-76
2022/06/06 01:34:03;;;;;;;1.70;0.20;;;15.80;99.90;;;;;;5054712;28;20254;-73
2022/06/06 01:36:35;;;;;;;2.00;0.30;;;15.90;99.90;;;;;;5051114;28;20224;-75
2022/06/06 01:39:08;;;;;;;0.80;0.40;;;15.90;99.90;;;;;;5054856;28;20193;-74
2022/06/06 01:41:52;;;;;;;0.20;0.20;;;16.10;99.90;;;;;;5053566;28;20193;-76
2022/06/06 01:44:32;;;;;;;1.95;0.25;;;16.10;99.90;;;;;;5052952;28;20201;-75
2022/06/06 01:47:04;;;;;;;0.30;0.20;;;16.10;99.90;;;;;;5047248;28;20201;-74
2022/06/06 01:49:36;;;;;;;0.20;0.20;;;16.00;99.90;;;;;;5053154;28;20197;-75
2022/06/06 01:52:09;;;;;;;0.20;0.20;;;16.00;99.90;;;;;;5048852;28;20197;-75
2022/06/06 01:54:40;;;;;;;1.75;0.40;;;16.10;99.90;;;;;;5052713;28;20233;-75
2022/06/06 01:57:12;;;;;;;1.17;0.30;;;16.20;99.90;;;;;;5053663;28;20231;-75
2022/06/06 01:59:45;;;;;;;1.00;0.40;;;16.20;99.90;;;;;;5052252;28;20696;-78
2022/06/06 02:02:16;;;;;;;23.90;13.55;;;16.20;99.90;;;;;;5048588;28;20193;-77
2022/06/06 02:04:46;;;;;;;18.40;10.63;;;16.30;99.90;;;;;;5050901;28;20229;-77
2022/06/06 02:07:17;;;;;;;6.70;2.58;;;16.20;99.90;;;;;;5054372;28;20279;-76
2022/06/06 02:09:51;;;;;;;1.73;0.80;;;16.30;99.90;;;;;;5055126;28;20568;-81
2022/06/06 02:12:22;;;;;;;0.30;0.30;;;16.40;99.90;;;;;;5056493;28;20204;-78
2022/06/06 02:14:54;;;;;;;1.65;0.40;;;16.50;99.90;;;;;;5056745;28;20228;-77
2022/06/06 02:17:25;;;;;;;0.20;0.20;;;16.40;99.90;;;;;;5056146;28;20212;-82
2022/06/06 02:19:56;;;;;;;0.20;0.20;;;16.40;99.90;;;;;;5054589;28;20831;-77
2022/06/06 02:22:27;;;;;;;0.52;0.20;;;16.40;99.90;;;;;;5061720;28;20204;-76
2022/06/06 02:24:57;;;;;;;0.40;0.30;;;16.30;99.90;;;;;;5056902;28;20208;-77
2022/06/06 02:27:28;;;;;;;2.40;0.30;;;16.40;99.90;;;;;;5054575;28;20557;-75
2022/06/06 02:30:01;;;;;;;0.30;0.20;;;16.40;99.90;;;;;;5048557;28;20234;-75
2022/06/06 02:32:31;;;;;;;0.20;0.20;;;16.40;99.90;;;;;;5053258;28;20585;-77
2022/06/06 02:35:02;;;;;;;0.30;0.20;;;16.40;99.90;;;;;;5051032;28;20204;-76
2022/06/06 02:37:33;;;;;;;0.52;0.25;;;16.40;99.90;;;;;;5051885;28;20197;-78
2022/06/06 02:40:04;;;;;;;0.20;0.20;;;16.50;99.90;;;;;;5053028;28;20194;-78
2022/06/06 02:42:34;;;;;;;0.70;0.15;;;16.60;99.90;;;;;;5059060;28;20281;-79
2022/06/06 02:45:09;;;;;;;0.30;0.20;;;16.70;99.90;;;;;;5050834;28;20251;-79
2022/06/06 02:47:40;;;;;;;0.60;0.60;;;16.70;99.90;;;;;;5047673;28;20731;-79
2022/06/06 02:50:11;;;;;;;0.45;0.20;;;16.70;99.90;;;;;;5059708;28;20212;-78
2022/06/06 02:52:43;;;;;;;0.98;0.17;;;16.60;99.90;;;;;;5052303;28;20205;-80
2022/06/06 02:55:15;;;;;;;0.10;0.10;;;16.70;99.90;;;;;;5053656;28;20196;-81
2022/06/06 02:57:51;;;;;;;0.95;0.20;;;16.60;99.90;;;;;;5046152;28;20202;-82
2022/06/06 03:00:26;;;;;;;0.10;0.10;;;16.60;99.90;;;;;;5047332;28;20225;-82
2022/06/06 03:02:57;;;;;;;0.10;0.10;;;16.50;99.90;;;;;;5050106;28;20696;-85
2022/06/06 03:05:36;;;;;;;0.28;0.25;;;16.50;99.90;;;;;;5050975;28;20628;-74
2022/06/06 03:08:20;;;;;;;0.20;0.20;;;16.50;99.90;;;;;;5048120;28;20206;-87
2022/06/06 03:11:00;;;;;;;0.15;0.15;;;16.50;99.90;;;;;;5045212;28;20240;-78
2022/06/06 03:13:50;;;;;;;0.65;0.30;;;16.50;99.90;;;;;;5051856;28;20228;-79
2022/06/06 03:22:44;;;;;;;0.35;0.22;;;16.70;99.90;;;;;;5045001;28;20601;-76
2022/06/06 03:25:22;;;;;;;0.20;0.20;;;16.70;99.90;;;;;;5052391;28;20205;-78
2022/06/06 03:27:58;;;;;;;0.85;0.30;;;16.70;99.90;;;;;;5053074;28;20692;-78
2022/06/06 03:30:37;;;;;;;0.55;0.30;;;16.60;99.90;;;;;;5050508;28;20209;-82
2022/06/06 03:33:22;;;;;;;2.85;0.40;;;16.80;99.90;;;;;;5051526;28;20200;-86
2022/06/06 03:35:59;;;;;;;1.55;0.40;;;16.70;99.90;;;;;;5046877;28;20218;-85
2022/06/06 03:38:43;;;;;;;0.55;0.30;;;16.70;99.90;;;;;;5051911;28;20196;-86
2022/06/06 03:41:22;;;;;;;0.32;0.20;;;16.80;99.90;;;;;;5052927;28;20576;-84
2022/06/06 03:43:59;;;;;;;0.20;0.20;;;16.80;99.90;;;;;;5044590;28;20186;-85
2022/06/06 03:46:36;;;;;;;0.22;0.20;;;16.80;99.90;;;;;;5046921;28;20193;-77
2022/06/06 03:49:24;;;;;;;1.25;0.30;;;16.80;99.90;;;;;;5050300;28;20194;-77
2022/06/06 03:52:05;;;;;;;0.60;0.20;;;16.80;99.90;;;;;;5052494;28;20252;-76
2022/06/06 03:54:48;;;;;;;0.10;0.10;;;16.80;99.90;;;;;;5048520;28;20193;-81
2022/06/06 03:57:20;;;;;;;1.02;0.30;;;16.90;99.90;;;;;;5040823;28;20220;-75
2022/06/06 03:59:55;;;;;;;1.75;0.20;;;16.90;99.90;;;;;;5048083;28;20304;-75
2022/06/06 04:02:31;;;;;;;0.30;0.15;;;16.80;99.90;;;;;;5045622;28;20213;-74
2022/06/06 04:05:06;;;;;;;0.25;0.25;;;16.90;99.90;;;;;;5041130;28;20236;-74
2022/06/06 04:07:37;;;;;;;0.90;0.20;;;16.90;99.90;;;;;;5047632;28;20656;-77
2022/06/06 04:10:09;;;;;;;0.20;0.20;;;16.80;99.90;;;;;;5048038;28;20194;-79
2022/06/06 04:12:55;;;;;;;1.20;0.17;;;16.80;99.90;;;;;;5056548;28;20191;-77
2022/06/06 04:15:38;;;;;;;2.35;0.40;;;16.80;99.90;;;;;;5051448;28;20197;-76
2022/06/06 04:18:17;;;;;;;0.20;0.20;;;16.80;99.90;;;;;;5054361;28;20189;-75
2022/06/06 04:20:58;;;;;;;0.20;0.20;;;16.80;99.90;;;;;;5053454;28;20669;-77
2022/06/06 04:23:47;;;;;;;1.30;0.20;;;16.80;99.90;;;;;;5056545;28;20276;-78
2022/06/06 04:26:26;;;;;;;0.10;0.10;;;16.80;99.90;;;;;;5050412;28;20186;-80
2022/06/06 04:29:05;;;;;;;0.20;0.20;;;16.90;99.90;;;;;;5053186;28;20205;-76
2022/06/06 04:31:46;;;;;;;0.98;0.30;;;16.90;99.90;;;;;;5050917;28;20197;-76
2022/06/06 04:34:23;;;;;;;0.95;0.20;;;16.90;99.90;;;;;;5052929;28;20226;-77
2022/06/06 04:37:07;;;;;;;0.22;0.22;;;16.80;99.90;;;;;;5056870;28;20226;-78
2022/06/06 04:39:49;;;;;;;0.93;0.20;;;16.90;99.90;;;;;;5054939;28;20197;-77
2022/06/06 04:42:28;;;;;;;1.55;0.45;;;16.90;99.90;;;;;;5051336;28;20197;-76
2022/06/06 04:45:05;;;;;;;1.70;0.40;;;16.90;99.90;;;;;;5054437;28;20186;-77
2022/06/06 04:47:39;;;;;;;0.20;0.20;;;16.90;99.90;;;;;;5050734;28;20212;-79
2022/06/06 04:50:11;;;;;;;2.05;0.30;;;16.80;99.90;;;;;;5050590;28;20182;-79
2022/06/06 04:52:47;;;;;;;2.75;0.47;;;16.80;99.90;;;;;;5052566;28;20205;-80
2022/06/06 04:55:19;;;;;;;0.73;0.20;;;16.90;99.90;;;;;;5051090;28;20193;-79
2022/06/06 04:57:54;;;;;;;0.10;0.10;;;16.80;99.90;;;;;;5048628;28;20218;-78
2022/06/06 05:00:26;;;;;;;0.15;0.10;;;16.90;99.90;;;;;;5050881;28;20232;-77
2022/06/06 05:02:57;;;;;;;0.10;0.10;;;16.80;99.90;;;;;;5054130;28;20659;-76
2022/06/06 05:05:36;;;;;;;0.43;0.30;;;16.80;99.90;;;;;;5048628;28;20232;-78
2022/06/06 05:08:24;;;;;;;2.20;0.20;;;16.80;99.90;;;;;;5049671;28;20197;-78
2022/06/06 05:11:15;;;;;;;0.22;0.22;;;16.80;99.90;;;;;;5050963;28;20256;-78
2022/06/06 05:14:08;;;;;;;0.20;0.20;;;16.80;99.90;;;;;;5050663;28;20205;-77
2022/06/06 05:17:12;;;;;;;0.10;0.10;;;16.80;99.90;;;;;;5047096;28;20222;-79
2022/06/06 05:20:03;;;;;;;0.52;0.40;;;16.70;99.90;;;;;;5052686;28;20224;-79
2022/06/06 05:22:49;;;;;;;0.22;0.20;;;16.70;99.90;;;;;;5047867;28;20193;-77
2022/06/06 05:25:38;;;;;;;1.17;0.30;;;16.70;99.90;;;;;;5048454;28;20194;-78
2022/06/06 05:28:30;;;;;;;0.40;0.38;;;16.60;99.90;;;;;;5050144;28;20285;-77
2022/06/06 05:31:08;;;;;;;0.47;0.20;;;16.60;99.90;;;;;;5050175;28;20575;-78
2022/06/06 05:33:44;;;;;;;0.60;0.30;;;16.70;99.90;;;;;;5052295;28;20190;-76
2022/06/06 05:36:31;;;;;;;0.85;0.28;;;16.60;99.90;;;;;;5050847;28;20668;-82
2022/06/06 05:39:23;;;;;;;0.55;0.20;;;16.70;99.90;;;;;;5048682;28;20248;-78
2022/06/06 05:42:17;;;;;;;0.25;0.22;;;16.60;99.90;;;;;;5045530;28;20213;-78
2022/06/06 05:44:58;;;;;;;0.17;0.17;;;16.60;99.90;;;;;;5049697;28;20722;-82
2022/06/06 05:47:37;;;;;;;0.10;0.10;;;16.50;99.90;;;;;;5045261;28;20212;-75
2022/06/06 05:50:22;;;;;;;3.22;0.40;;;16.60;99.90;;;;;;5051140;28;20228;-78
2022/06/06 05:53:10;;;;;;;0.28;0.22;;;16.60;99.90;;;;;;5055589;28;20260;-76
2022/06/06 05:55:54;;;;;;;0.30;0.30;;;16.50;99.90;;;;;;5045533;28;20190;-79
2022/06/06 05:58:40;;;;;;;0.77;0.20;;;16.50;99.90;;;;;;5048703;28;20197;-77
2022/06/06 06:01:26;;;;;;;0.40;0.20;;;16.40;99.90;;;;;;5048297;28;20590;-77
2022/06/06 06:04:17;;;;;;;0.75;0.45;;;16.30;99.90;;;;;;5048286;28;20704;-79
2022/06/06 06:06:56;;;;;;;0.95;0.20;;;16.30;99.90;;;;;;5052269;28;20587;-77
2022/06/06 06:09:46;;;;;;;1.20;0.20;;;16.20;99.90;;;;;;5044561;28;20696;-77
2022/06/06 06:12:35;;;;;;;0.98;0.15;;;16.20;99.90;;;;;;5047742;28;20281;-76
2022/06/06 06:15:23;;;;;;;0.20;0.20;;;16.10;99.90;;;;;;5045456;28;20278;-77
2022/06/06 06:17:56;;;;;;;2.17;0.30;;;16.10;99.90;;;;;;5053742;28;20727;-77
2022/06/06 06:20:31;;;;;;;0.70;0.20;;;16.00;99.90;;;;;;5052093;28;20553;-78
2022/06/06 06:23:07;;;;;;;0.90;0.30;;;16.00;99.90;;;;;;5050952;28;20209;-76
2022/06/06 06:25:39;;;;;;;0.10;0.10;;;15.90;99.90;;;;;;5046403;28;20677;-77
2022/06/06 06:28:12;;;;;;;0.20;0.20;;;15.90;99.90;;;;;;5046479;28;20651;-76
2022/06/06 06:30:55;;;;;;;0.28;0.20;;;15.90;99.90;;;;;;5052795;28;20189;-76
2022/06/06 06:33:50;;;;;;;2.72;0.30;;;15.80;99.90;;;;;;5049701;28;20205;-81
2022/06/06 06:36:41;;;;;;;0.90;0.20;;;15.80;99.90;;;;;;5048214;28;20723;-79
2022/06/06 06:39:35;;;;;;;0.20;0.20;;;15.70;99.90;;;;;;5045346;28;20658;-77
2022/06/06 06:42:20;;;;;;;0.30;0.30;;;15.60;99.90;;;;;;5047156;28;20668;-77
2022/06/06 06:45:01;;;;;;;0.47;0.20;;;15.60;99.90;;;;;;5047330;28;20232;-76
2022/06/06 06:47:36;;;;;;;0.30;0.30;;;15.50;99.90;;;;;;5046568;28;20929;-76
2022/06/06 06:50:13;;;;;;;0.47;0.40;;;15.40;99.90;;;;;;5050753;28;20202;-76
2022/06/06 06:52:56;;;;;;;0.60;0.40;;;15.30;99.90;;;;;;5045890;28;20653;-76
2022/06/06 06:55:39;;;;;;;0.68;0.30;;;15.20;99.90;;;;;;5045914;28;20227;-77
2022/06/06 06:58:30;;;;;;;0.45;0.45;;;15.20;99.90;;;;;;5050623;28;20213;-76
2022/06/06 07:01:04;;;;;;;0.73;0.40;;;15.10;99.90;;;;;;5046379;28;20731;-80
2022/06/06 07:09:57;;;;;;;1.48;0.50;;;14.90;99.90;;;;;;5047890;28;20265;-80
2022/06/06 07:12:47;;;;;;;1.95;0.30;;;14.90;99.90;;;;;;5048501;28;20205;-78
2022/06/06 07:15:28;;;;;;;0.50;0.30;;;14.90;99.90;;;;;;5044980;28;20606;-78
2022/06/06 07:18:03;;;;;;;1.08;0.40;;;14.90;99.90;;;;;;5045843;28;20232;-78
2022/06/06 07:20:37;;;;;;;0.45;0.45;;;14.90;99.90;;;;;;5042231;28;20246;-77
2022/06/06 07:23:11;;;;;;;0.70;0.38;;;14.80;99.90;;;;;;5044227;28;20204;-77
2022/06/06 07:25:43;;;;;;;0.85;0.40;;;14.80;99.90;;;;;;5049207;28;20193;-78
2022/06/06 07:28:19;;;;;;;1.45;0.50;;;14.70;99.90;;;;;;5051643;28;20271;-77
2022/06/06 07:31:03;;;;;;;1.05;0.40;;;14.70;99.90;;;;;;5051203;28;20221;-73
2022/06/06 07:34:00;;;;;;;0.43;0.40;;;14.70;99.90;;;;;;5044285;28;20193;-78
2022/06/06 07:36:45;;;;;;;0.60;0.50;;;14.60;99.90;;;;;;5050133;28;20596;-76
2022/06/06 07:39:26;;;;;;;0.90;0.52;;;14.60;99.90;;;;;;5050090;28;20189;-76
2022/06/06 07:42:10;;;;;;;1.35;0.60;;;14.50;99.90;;;;;;5051381;28;20189;-76
2022/06/06 07:44:52;;;;;;;0.70;0.60;;;14.50;99.90;;;;;;5049635;28;20201;-77
2022/06/06 07:47:35;;;;;;;1.45;0.60;;;14.40;99.90;;;;;;5048981;28;20194;-82
2022/06/06 07:50:09;;;;;;;0.40;0.40;;;14.40;99.90;;;;;;5049294;28;20195;-81
2022/06/06 07:52:46;;;;;;;2.28;0.57;;;14.30;99.90;;;;;;5049399;28;20196;-75
2022/06/06 07:55:23;;;;;;;1.38;0.50;;;14.30;99.90;;;;;;5050795;28;20239;-76
2022/06/06 07:58:00;;;;;;;1.10;0.60;;;14.20;99.90;;;;;;5049596;28;20232;-76
2022/06/06 08:00:31;;;;;;;0.50;0.50;;;14.20;99.90;;;;;;5045437;28;20217;-77
2022/06/06 08:03:17;;;;;;;1.58;0.60;;;14.20;99.90;;;;;;5080391;22;20599;-78
2022/06/06 08:06:15;;;;;;;0.73;0.55;;;14.10;99.90;;;;;;5099188;28;20657;-77
2022/06/06 08:09:20;;;;;;;1.88;0.70;;;14.00;99.90;;;;;;5100788;28;20207;-79
2022/06/06 08:12:13;;;;;;;1.38;0.75;;;13.90;99.90;;;;;;5106560;28;20236;-78
2022/06/06 08:14:57;;;;;;;1.45;0.60;;;13.90;99.90;;;;;;5109882;28;20248;-79
2022/06/06 08:17:37;;;;;;;1.42;0.80;;;13.80;99.90;;;;;;5108420;28;20211;-77
2022/06/06 08:20:17;;;;;;;0.57;0.55;;;13.80;99.90;;;;;;5103123;28;20211;-78
2022/06/06 08:22:48;;;;;;;0.75;0.52;;;13.80;99.90;;;;;;5110185;28;20192;-80
2022/06/06 08:25:22;;;;;;;1.02;0.60;;;13.70;99.90;;;;;;5110863;28;20204;-78
2022/06/06 08:27:56;;;;;;;0.85;0.52;;;13.70;99.90;;;;;;5104571;28;20191;-79
2022/06/06 08:30:27;;;;;;;0.80;0.60;;;13.70;99.90;;;;;;5108534;28;20196;-78
2022/06/06 08:32:58;;;;;;;0.75;0.50;;;13.70;99.90;;;;;;5110642;28;20192;-78
2022/06/06 08:35:37;;;;;;;1.10;0.60;;;13.60;99.90;;;;;;5105680;28;20195;-79
2022/06/06 08:38:33;;;;;;;1.00;0.60;;;13.60;99.90;;;;;;5110803;28;20227;-78
2022/06/06 08:41:25;;;;;;;1.42;0.70;;;13.50;99.90;;;;;;5099855;28;20187;-78
2022/06/06 08:44:05;;;;;;;2.13;0.70;;;13.40;99.90;;;;;;5106368;28;20196;-77
2022/06/06 08:46:55;;;;;;;1.50;0.85;;;13.40;99.90;;;;;;5107273;28;20192;-77
2022/06/06 08:53:14;;;;;;;1.33;0.70;;;13.20;99.90;;;;;;5109926;28;20325;-77
2022/06/06 08:56:08;;;;;;;1.73;0.88;;;13.20;99.90;;;;;;5109194;28;20200;-78
2022/06/06 08:59:07;;;;;;;2.13;0.85;;;13.10;99.90;;;;;;5110096;28;20211;-77
2022/06/06 09:02:03;;;;;;;1.75;0.85;;;13.10;99.90;;;;;;5107659;28;20216;-77
2022/06/06 09:04:56;;;;;;;1.10;0.80;;;13.10;99.90;;;;;;5109578;28;20188;-78
2022/06/06 09:07:59;;;;;;;3.67;1.20;;;13.00;99.90;;;;;;5104000;28;20211;-78
2022/06/06 09:10:55;;;;;;;1.55;0.90;;;13.00;99.90;;;;;;5108561;28;20279;-78
2022/06/06 09:14:06;;;;;;;4.47;0.80;;;12.90;99.90;;;;;;5108413;28;20196;-78
2022/06/06 09:17:25;;;;;;;0.85;0.50;;;12.90;99.90;;;;;;5109606;28;20187;-77
2022/06/06 09:20:30;;;;;;;1.52;0.60;;;12.90;99.90;;;;;;5111011;28;20191;-77
2022/06/06 09:23:30;;;;;;;0.52;0.52;;;12.80;99.90;;;;;;5105031;28;20210;-78
2022/06/06 09:26:04;;;;;;;1.20;0.82;;;12.80;99.90;;;;;;5103760;28;20191;-77
2022/06/06 09:29:25;;;;;;;2.45;0.90;;;12.80;99.90;;;;;;5105113;28;20564;-77
2022/06/06 09:32:36;;;;;;;1.23;0.75;;;12.70;99.90;;;;;;5114711;28;20202;-77
2022/06/06 09:35:39;;;;;;;0.85;0.52;;;12.70;99.90;;;;;;5112388;28;20210;-78
2022/06/06 09:38:27;;;;;;;1.10;0.80;;;12.60;99.90;;;;;;5111282;28;20253;-78
2022/06/06 09:41:12;;;;;;;1.70;0.90;;;12.60;99.90;;;;;;5109305;28;20244;-79
2022/06/06 09:43:57;;;;;;;1.45;0.80;;;12.60;99.90;;;;;;5107485;28;20627;-78
2022/06/06 09:47:12;;;;;;;1.80;1.00;;;12.60;99.90;;;;;;5112228;28;20230;-77
2022/06/06 09:50:22;;;;;;;1.85;0.82;;;12.50;99.90;;;;;;5108636;28;20669;-78
2022/06/06 09:53:26;;;;;;;1.52;1.05;;;12.60;99.90;;;;;;5112902;28;20202;-77
2022/06/06 09:59:54;;;;;;;1.42;1.00;;;12.50;99.90;;;;;;5073675;28;20383;-77
2022/06/06 10:03:00;;;;;;;4.82;0.93;;;12.40;99.90;;;;;;5104485;28;20227;-77
2022/06/06 10:06:11;;;;;;;2.08;0.93;;;12.40;99.90;;;;;;5087537;28;20195;-77
2022/06/06 10:09:22;;;;;;;2.95;1.10;;;12.30;99.90;;;;;;5112208;28;20195;-77
2022/06/06 10:12:30;;;;;;;2.90;0.90;;;12.30;99.90;;;;;;5076213;28;20192;-77
2022/06/06 10:15:19;;;;;;;2.08;1.05;;;12.30;99.90;;;;;;5089180;28;20584;-77
2022/06/06 10:18:09;;;;;;;2.42;0.80;;;12.20;99.90;;;;;;5097955;28;20265;-78
2022/06/06 10:20:56;;;;;;;2.47;0.98;;;12.20;99.90;;;;;;5106165;28;20199;-77
2022/06/06 10:23:48;;;;;;;2.03;0.80;;;12.20;99.90;;;;;;5104305;28;20554;-78
2022/06/06 10:26:29;;;;;;;1.73;0.90;;;12.20;99.90;;;;;;5108733;28;20200;-78
2022/06/06 10:29:27;;;;;;;1.50;0.70;;;12.20;99.90;;;;;;5108846;28;20244;-79
2022/06/06 10:32:13;;;;;;;2.10;0.90;;;12.10;99.90;;;;;;5099214;28;20203;-79
2022/06/06 10:35:11;;;;;;;2.38;0.80;;;12.10;99.90;;;;;;5104856;28;20187;-78
2022/06/06 10:38:05;;;;;;;1.15;0.80;;;12.10;99.90;;;;;;5105280;28;20207;-78
2022/06/06 10:41:03;;;;;;;1.95;0.82;;;12.00;99.90;;;;;;5103871;28;20200;-79
2022/06/06 10:43:59;;;;;;;2.10;0.80;;;12.10;99.90;;;;;;5097289;28;20222;-79
2022/06/06 10:46:37;;;;;;;1.60;0.70;;;12.00;99.90;;;;;;5103097;28;20223;-77
2022/06/06 10:49:19;;;;;;;1.88;0.73;;;12.00;99.90;;;;;;5111918;28;20199;-78
2022/06/06 10:52:16;;;;;;;3.33;0.88;;;12.00;99.90;;;;;;5109745;28;20655;-77
2022/06/06 10:55:04;;;;;;;1.25;0.80;;;11.90;99.90;;;;;;5109344;28;20193;-78
2022/06/06 10:58:06;;;;;;;1.75;0.80;;;11.90;99.90;;;;;;5110433;28;20215;-82
2022/06/06 11:01:02;;;;;;;2.67;0.77;;;11.90;99.90;;;;;;5107646;28;20199;-77
2022/06/06 11:04:09;;;;;;;1.52;0.80;;;11.90;99.90;;;;;;5102475;28;20235;-78
2022/06/06 11:07:06;;;;;;;1.63;0.90;;;11.80;99.90;;;;;;5098870;28;20200;-77
2022/06/06 11:10:09;;;;;;;2.55;0.73;;;11.80;99.90;;;;;;5085827;28;20214;-77
2022/06/06 11:13:16;;;;;;;2.15;0.70;;;11.80;99.90;;;;;;5100821;28;20200;-78
2022/06/06 11:16:11;;;;;;;2.47;0.60;;;11.80;99.90;;;;;;5100482;28;20199;-78
2022/06/06 11:19:32;;;;;;;2.10;0.60;;;11.80;99.90;;;;;;5111766;28;20219;-79
2022/06/06 11:22:31;;;;;;;2.20;0.70;;;11.80;99.90;;;;;;5101294;28;20206;-77
2022/06/06 11:25:14;;;;;;;3.88;0.68;;;11.80;99.90;;;;;;5105839;28;20196;-77
2022/06/06 11:28:19;;;;;;;1.38;0.60;;;11.80;99.90;;;;;;5103287;28;20211;-78
2022/06/06 11:31:11;;;;;;;4.07;0.80;;;11.80;99.90;;;;;;5101518;28;20649;-78
2022/06/06 11:34:09;;;;;;;2.85;0.70;;;11.80;99.90;;;;;;5108146;28;20210;-76
2022/06/06 11:37:09;;;;;;;3.63;0.80;;;11.70;99.90;;;;;;5105833;28;20763;-76
2022/06/06 11:40:09;;;;;;;1.27;0.68;;;11.80;99.90;;;;;;5106326;28;20223;-77
2022/06/06 11:43:33;;;;;;;2.70;0.65;;;11.70;99.90;;;;;;5107647;28;20191;-78
2022/06/06 11:46:47;;;;;;;1.52;0.68;;;11.80;99.90;;;;;;5108218;28;20320;-77
2022/06/06 11:49:52;;;;;;;3.17;0.70;;;11.70;99.90;;;;;;5065086;28;20207;-77
2022/06/06 11:52:53;;;;;;;2.10;0.68;;;11.70;99.90;;;;;;5106658;28;20290;-79
2022/06/06 11:55:39;;;;;;;1.80;0.80;;;11.70;99.90;;;;;;5109478;28;20209;-78
2022/06/06 11:58:56;;;;;;;3.05;0.68;;;11.70;99.90;;;;;;5110068;28;20220;-77
2022/06/06 12:01:52;;;;;;;1.77;0.80;;;11.70;99.90;;;;;;5106385;28;20561;-77
2022/06/06 12:04:51;;;;;;;1.35;0.52;;;11.70;99.90;;;;;;5109169;28;20231;-79
2022/06/06 12:07:59;;;;;;;2.10;0.60;;;11.70;99.90;;;;;;5110277;28;20210;-77
2022/06/06 12:10:33;;;;;;;1.58;0.70;;;11.70;99.90;;;;;;5103440;28;20221;-78
2022/06/06 12:13:41;;;;;;;1.92;0.60;;;11.60;99.90;;;;;;5112811;28;20188;-78
2022/06/06 12:16:37;;;;;;;1.50;0.60;;;11.60;99.90;;;;;;5100903;28;20279;-77
2022/06/06 12:19:25;;;;;;;2.20;0.70;;;11.60;99.90;;;;;;5098177;28;20297;-78
2022/06/06 12:22:35;;;;;;;3.13;0.60;;;11.60;99.90;;;;;;5109380;28;20597;-78
2022/06/06 12:25:46;;;;;;;4.75;0.63;;;11.60;99.90;;;;;;5079003;28;20201;-77
2022/06/06 12:28:48;;;;;;;2.33;0.52;;;11.50;99.90;;;;;;5108561;28;20272;-77
2022/06/06 12:31:45;;;;;;;2.10;0.70;;;11.50;99.90;;;;;;5101824;28;20230;-77
2022/06/06 12:34:20;;;;;;;1.27;0.65;;;11.60;99.90;;;;;;5073669;28;20559;-78
2022/06/06 12:36:59;;;;;;;1.20;0.40;;;11.50;99.90;;;;;;5112809;28;20187;-76
2022/06/06 12:39:42;;;;;;;294.75;125.57;;;11.50;99.90;;;;;;5114865;28;20297;-77
2022/06/06 12:42:23;;;;;;;353.98;151.43;;;11.50;99.90;;;;;;5113111;28;20195;-78
2022/06/06 12:45:29;;;;;;;419.85;187.82;;;11.50;99.90;;;;;;5114287;28;20240;-78
2022/06/06 12:48:31;;;;;;;38.05;18.45;;;11.50;99.90;;;;;;5114383;28;20649;-78
2022/06/06 12:51:13;;;;;;;78.75;36.15;;;11.50;99.90;;;;;;5072610;28;20206;-77
2022/06/06 12:54:14;;;;;;;123.07;58.55;;;11.50;99.90;;;;;;5113527;28;20195;-78
2022/06/06 12:57:03;;;;;;;38.28;17.75;;;11.40;99.90;;;;;;5106757;28;20202;-77
2022/06/06 12:59:57;;;;;;;10.10;4.35;;;11.40;99.90;;;;;;5107080;28;20215;-77
2022/06/06 13:02:55;;;;;;;7.70;3.67;;;11.40;99.90;;;;;;5111498;28;20600;-77
2022/06/06 13:05:38;;;;;;;3.25;1.38;;;11.30;99.90;;;;;;5112685;28;20192;-78
2022/06/06 13:08:39;;;;;;;6.55;2.08;;;11.30;99.90;;;;;;5106944;28;20208;-77
2022/06/06 13:11:27;;;;;;;3.40;0.80;;;11.30;99.90;;;;;;5107210;28;20199;-77
2022/06/06 13:14:21;;;;;;;2.80;0.80;;;11.20;99.90;;;;;;5109266;28;20552;-77
2022/06/06 13:17:06;;;;;;;2.95;0.90;;;11.20;99.90;;;;;;5072714;28;20195;-78
2022/06/06 13:19:58;;;;;;;1.10;0.70;;;11.20;99.90;;;;;;5109035;28;20210;-78
2022/06/06 13:22:51;;;;;;;2.75;0.70;;;11.30;99.90;;;;;;5108574;28;20188;-77
2022/06/06 13:25:36;;;;;;;2.33;0.70;;;11.10;99.90;;;;;;5107699;28;20207;-77
2022/06/06 13:28:20;;;;;;;2.30;0.80;;;11.10;99.90;;;;;;5105721;28;20196;-77
2022/06/06 13:31:16;;;;;;;3.40;1.00;;;11.00;99.90;;;;;;5106852;28;20237;-77
2022/06/06 13:34:08;;;;;;;2.05;0.63;;;11.00;99.90;;;;;;5107401;28;20214;-77
2022/06/06 13:36:52;;;;;;;2.60;0.82;;;11.00;99.90;;;;;;5108552;28;20194;-77
2022/06/06 13:39:41;;;;;;;1.60;0.52;;;10.90;99.90;;;;;;5107606;28;20212;-77
2022/06/06 13:42:19;;;;;;;2.90;0.90;;;10.90;99.90;;;;;;5104416;28;20218;-77
2022/06/06 13:45:26;;;;;;;2.35;0.60;;;10.80;99.90;;;;;;5106837;28;20194;-77
2022/06/06 13:48:20;;;;;;;2.35;0.80;;;10.80;99.90;;;;;;5024485;28;20293;-78
2022/06/06 13:51:05;;;;;;;2.50;0.70;;;10.80;99.90;;;;;;5109594;28;20199;-78
2022/06/06 13:54:00;;;;;;;2.30;0.68;;;10.80;99.90;;;;;;5106354;28;20249;-80
2022/06/06 13:57:10;;;;;;;1.27;0.60;;;10.70;99.90;;;;;;5106153;28;20548;-78
2022/06/06 14:02:29;;;;;;;1.95;0.73;;;10.70;99.90;;;;;;5025320;28;20692;-76
2022/06/06 14:05:18;;;;;;;2.20;0.90;;;10.70;99.90;;;;;;5031774;28;20205;-78
2022/06/06 14:08:00;;;;;;;2.70;0.80;;;10.60;99.90;;;;;;5032728;28;20274;-78
2022/06/06 14:11:03;;;;;;;4.28;0.95;;;10.50;99.90;;;;;;5032719;28;20201;-77
2022/06/06 14:13:45;;;;;;;3.10;0.70;;;10.50;99.90;;;;;;5023434;28;20200;-77
2022/06/06 14:16:24;;;;;;;1.98;0.68;;;10.40;99.90;;;;;;5028236;28;20221;-77
2022/06/06 14:19:13;;;;;;;3.22;0.82;;;10.40;99.90;;;;;;5037289;28;20218;-78
2022/06/06 14:21:52;;;;;;;2.42;0.73;;;10.40;99.90;;;;;;5034330;28;20202;-77
2022/06/06 14:24:27;;;;;;;1.88;0.80;;;10.40;99.90;;;;;;5032782;28;20209;-77
2022/06/06 14:27:01;;;;;;;3.38;0.90;;;10.40;99.90;;;;;;5026108;28;20645;-77
2022/06/06 14:29:34;;;;;;;3.58;0.90;;;10.40;99.90;;;;;;5033295;28;20239;-78
2022/06/06 14:32:07;;;;;;;4.72;0.95;;;10.40;99.90;;;;;;5038709;28;20206;-77
2022/06/06 14:34:45;;;;;;;1.30;0.60;;;10.50;99.90;;;;;;5039279;28;20199;-83
2022/06/06 14:37:19;;;;;;;4.25;0.90;;;10.50;99.90;;;;;;5029535;28;20194;-77
2022/06/06 14:39:53;;;;;;;2.42;0.80;;;10.50;99.90;;;;;;5033333;28;20225;-76